Time;durP1;ratioP1;P1;durP2;ratioP2;P2;SDS_P1;SDS_P2;PMS_P1;PMS_P2;Temp;Humidity;BMP_temperature;BMP_pressure;BME280_temperature;BME280_humidity;BME280_pressure;Samples;Min_cycle;Max_cycle;Signal;HPM_P1;HPM_P2
2020/12/03 00:01:21;;;;;;;56.43;19.37;;;;;;;-0.73;100.00;95755.44;5079315;28;20700;-70
2020/12/03 00:03:51;;;;;;;66.20;21.83;;;;;;;-0.72;100.00;95757.91;5079939;28;20554;-70
2020/12/03 00:06:20;;;;;;;59.17;20.10;;;;;;;-0.76;100.00;95751.31;5078584;28;20211;-70
2020/12/03 00:08:50;;;;;;;54.37;18.80;;;;;;;-0.68;100.00;95751.53;5079081;28;20228;-70
2020/12/03 00:11:16;;;;;;;50.63;17.93;;;;;;;-0.67;100.00;95758.34;5079790;28;20233;-70
2020/12/03 00:13:43;;;;;;;57.53;19.07;;;;;;;-0.72;100.00;95770.03;5079097;28;21248;-70
2020/12/03 00:16:09;;;;;;;58.47;19.00;;;;;;;-0.64;100.00;95760.69;5078421;28;20837;-70
2020/12/03 00:18:38;;;;;;;57.27;18.83;;;;;;;-0.67;100.00;95750.59;5079351;28;20242;-70
2020/12/03 00:21:06;;;;;;;54.40;18.90;;;;;;;-0.69;100.00;95760.22;5078958;28;20209;-70
2020/12/03 00:23:33;;;;;;;59.70;19.13;;;;;;;-0.77;100.00;95764.38;5078797;28;20206;-70
2020/12/03 00:25:59;;;;;;;55.73;19.00;;;;;;;-0.80;100.00;95757.69;5078530;28;20211;-70
2020/12/03 00:28:30;;;;;;;54.63;19.40;;;;;;;-0.73;100.00;95755.44;5078632;28;20223;-70
2020/12/03 00:30:57;;;;;;;52.73;18.47;;;;;;;-0.63;100.00;95751.19;5078711;28;20227;-70
2020/12/03 00:33:24;;;;;;;56.60;18.00;;;;;;;-0.60;100.00;95738.81;5079099;28;20656;-70
2020/12/03 00:35:50;;;;;;;53.67;18.47;;;;;;;-0.68;100.00;95738.59;5077963;28;20207;-70
2020/12/03 00:38:17;;;;;;;59.33;19.40;;;;;;;-0.66;100.00;95736.72;5078452;28;20600;-70
2020/12/03 00:40:43;;;;;;;53.33;19.07;;;;;;;-0.86;100.00;95729.72;5078866;28;20199;-70
2020/12/03 00:43:09;;;;;;;56.27;18.70;;;;;;;-0.86;100.00;95726.31;5078731;28;20678;-70
2020/12/03 00:45:35;;;;;;;54.87;18.80;;;;;;;-0.68;100.00;95730.84;5077484;28;20240;-70
2020/12/03 00:48:02;;;;;;;54.90;18.80;;;;;;;-0.70;100.00;95732.75;5078345;28;20227;-70
2020/12/03 00:50:28;;;;;;;49.13;18.07;;;;;;;-0.50;100.00;95737.97;5078631;28;20203;-70
2020/12/03 00:52:54;;;;;;;57.00;18.40;;;;;;;-0.50;100.00;95740.56;5078606;28;20202;-70
2020/12/03 00:55:20;;;;;;;60.07;19.10;;;;;;;-0.59;100.00;95738.72;5077824;28;20824;-70
2020/12/03 00:57:46;;;;;;;51.80;18.03;;;;;;;-0.59;100.00;95750.81;5078090;28;20231;-70
2020/12/03 01:00:17;;;;;;;52.33;18.03;;;;;;;-0.76;100.00;95756.50;5078792;28;20202;-70
2020/12/03 01:02:43;;;;;;;58.90;19.10;;;;;;;-0.74;100.00;95753.78;5078781;28;20237;-70
2020/12/03 01:05:11;;;;;;;51.40;17.40;;;;;;;-0.77;100.00;95762.59;5077322;28;20253;-70
2020/12/03 01:07:37;;;;;;;56.87;18.43;;;;;;;-0.76;100.00;95756.50;5077990;28;20206;-70
2020/12/03 01:10:05;;;;;;;53.77;18.43;;;;;;;-0.65;100.00;95750.47;5078457;28;20203;-70
2020/12/03 01:12:31;;;;;;;53.97;17.73;;;;;;;-0.69;100.00;95754.25;5078124;28;20224;-70
2020/12/03 01:14:57;;;;;;;51.10;18.93;;;;;;;-0.67;100.00;95744.63;5077701;28;20401;-70
2020/12/03 01:17:24;;;;;;;60.23;19.37;;;;;;;-0.56;100.00;95742.78;5078711;28;20668;-70
2020/12/03 01:19:51;;;;;;;56.70;19.57;;;;;;;-0.45;100.00;95740.16;5077888;28;20199;-70
2020/12/03 01:22:18;;;;;;;58.40;18.77;;;;;;;-0.51;100.00;95751.00;5077508;28;21140;-70
2020/12/03 01:24:44;;;;;;;56.77;18.77;;;;;;;-0.40;100.00;95754.38;5077748;28;20693;-71
2020/12/03 01:27:10;;;;;;;49.73;18.37;;;;;;;-0.39;100.00;95755.22;5077374;28;20199;-70
2020/12/03 01:29:36;;;;;;;54.90;18.23;;;;;;;-0.33;100.00;95749.53;5077568;28;20339;-70
2020/12/03 01:32:02;;;;;;;49.20;16.70;;;;;;;-0.27;100.00;95747.25;5078024;28;20227;-70
2020/12/03 01:34:29;;;;;;;49.17;18.33;;;;;;;-0.27;100.00;95739.50;5077603;28;21248;-70
2020/12/03 01:36:55;;;;;;;51.63;18.10;;;;;;;-0.30;100.00;95741.53;5076939;28;20211;-70
2020/12/03 01:39:22;;;;;;;55.10;18.30;;;;;;;-0.14;100.00;95740.16;5077525;28;20226;-70
2020/12/03 01:41:49;;;;;;;48.90;18.30;;;;;;;-0.16;100.00;95746.41;5077552;28;20206;-70
2020/12/03 01:44:16;;;;;;;50.97;17.40;;;;;;;-0.29;100.00;95750.94;5077575;28;20200;-70
2020/12/03 01:46:43;;;;;;;48.73;17.13;;;;;;;-0.28;100.00;95749.97;5076804;28;20206;-70
2020/12/03 01:49:15;;;;;;;53.77;17.50;;;;;;;-0.40;100.00;95753.56;5076773;28;20234;-70
2020/12/03 01:51:44;;;;;;;51.53;17.97;;;;;;;-0.51;100.00;95738.91;5077299;28;20230;-70
2020/12/03 01:54:12;;;;;;;53.13;17.17;;;;;;;-0.49;100.00;95733.59;5077447;28;20200;-70
2020/12/03 01:56:58;;;;;;;53.70;18.17;;;;;;;-0.38;100.00;95736.97;5076716;28;20202;-70
2020/12/03 01:59:27;;;;;;;53.57;18.00;;;;;;;-0.34;100.00;95727.19;5077370;28;20247;-70
2020/12/03 02:01:54;;;;;;;52.53;17.67;;;;;;;-0.24;100.00;95730.66;5077082;28;20203;-70
2020/12/03 02:04:20;;;;;;;51.67;17.97;;;;;;;-0.20;100.00;95726.91;5076798;28;20213;-70
2020/12/03 02:06:48;;;;;;;51.00;17.80;;;;;;;-0.14;100.00;95723.78;5076446;28;20204;-70
2020/12/03 02:09:14;;;;;;;54.37;18.53;;;;;;;-0.34;100.00;95711.69;5077113;28;20221;-70
2020/12/03 02:11:41;;;;;;;49.43;16.97;;;;;;;-0.35;100.00;95710.03;5076882;28;20235;-70
2020/12/03 02:14:09;;;;;;;49.60;17.03;;;;;;;-0.31;100.00;95701.06;5077357;28;20202;-70
2020/12/03 02:16:37;;;;;;;46.17;16.43;;;;;;;-0.38;100.00;95700.75;5076367;28;20200;-70
2020/12/03 02:19:13;;;;;;;50.70;18.00;;;;;;;-0.34;100.00;95701.31;5076820;28;20219;-70
2020/12/03 02:21:41;;;;;;;52.37;17.67;;;;;;;-0.38;100.00;95692.97;5077087;28;20209;-70
2020/12/03 02:24:07;;;;;;;54.33;19.13;;;;;;;-0.30;100.00;95682.00;5077328;28;20199;-71
2020/12/03 02:26:33;;;;;;;57.83;17.87;;;;;;;-0.31;100.00;95682.94;5076043;28;20757;-70
2020/12/03 02:28:59;;;;;;;51.97;18.13;;;;;;;-0.40;100.00;95696.63;5076272;28;20323;-70
2020/12/03 02:31:25;;;;;;;57.87;18.73;;;;;;;-0.44;100.00;95684.91;5077593;28;20265;-70
2020/12/03 02:33:51;;;;;;;54.33;17.90;;;;;;;-0.39;100.00;95680.16;5076700;28;20299;-70
2020/12/03 02:36:17;;;;;;;51.00;17.10;;;;;;;-0.35;100.00;95663.44;5076005;28;20854;-70
2020/12/03 02:38:44;;;;;;;53.87;17.93;;;;;;;-0.37;100.00;95652.38;5076959;28;20314;-70
2020/12/03 02:41:10;;;;;;;56.20;18.33;;;;;;;-0.31;100.00;95664.81;5076679;28;20199;-70
2020/12/03 02:43:37;;;;;;;59.03;18.33;;;;;;;-0.21;100.00;95657.97;5076337;28;20225;-70
2020/12/03 02:46:04;;;;;;;48.07;17.20;;;;;;;-0.22;100.00;95657.13;5075746;28;20210;-70
2020/12/03 02:48:30;;;;;;;53.87;18.13;;;;;;;-0.37;100.00;95647.19;5076713;28;20226;-70
2020/12/03 02:50:56;;;;;;;58.00;17.77;;;;;;;-0.44;100.00;95646.88;5076627;28;20224;-70
2020/12/03 02:53:23;;;;;;;56.97;17.60;;;;;;;-0.36;100.00;95646.25;5076536;28;20206;-71
2020/12/03 02:55:49;;;;;;;52.97;18.10;;;;;;;-0.33;100.00;95651.19;5075953;28;20206;-70
2020/12/03 02:58:15;;;;;;;51.17;18.17;;;;;;;-0.36;100.00;95641.09;5076440;28;20238;-70
2020/12/03 03:00:41;;;;;;;51.27;17.17;;;;;;;-0.28;100.00;95624.00;5079337;28;20277;-70
2020/12/03 03:03:07;;;;;;;53.13;17.53;;;;;;;-0.19;100.00;95624.97;5081044;28;20227;-70
2020/12/03 03:05:33;;;;;;;54.13;17.50;;;;;;;-0.25;100.00;95622.91;5077951;28;20296;-70
2020/12/03 03:07:59;;;;;;;49.90;17.67;;;;;;;-0.22;100.00;95620.06;5080035;28;20230;-70
2020/12/03 03:10:25;;;;;;;49.57;16.90;;;;;;;-0.26;100.00;95616.09;5080877;28;20219;-71
2020/12/03 03:12:52;;;;;;;51.77;16.90;;;;;;;-0.09;100.00;95623.28;5080722;28;20838;-70
2020/12/03 03:15:19;;;;;;;54.20;18.90;;;;;;;-0.02;100.00;95619.22;5079797;28;20723;-70
2020/12/03 03:17:45;;;;;;;57.27;18.40;;;;;;;-0.08;100.00;95609.38;5080171;28;20226;-70
2020/12/03 03:20:12;;;;;;;54.50;18.53;;;;;;;-0.34;100.00;95608.16;5080679;28;20215;-70
2020/12/03 03:22:39;;;;;;;58.13;18.03;;;;;;;-0.26;100.00;95621.28;5079917;28;20208;-71
2020/12/03 03:25:06;;;;;;;58.33;18.27;;;;;;;-0.38;100.00;95627.44;5079406;28;20198;-70
2020/12/03 03:27:32;;;;;;;52.03;18.03;;;;;;;-0.33;100.00;95625.28;5080318;28;20206;-70
2020/12/03 03:29:58;;;;;;;55.73;18.37;;;;;;;-0.20;100.00;95620.78;5080162;28;20233;-71
2020/12/03 03:32:24;;;;;;;52.63;18.33;;;;;;;-0.09;100.00;95615.50;5079867;28;20234;-70
2020/12/03 03:34:50;;;;;;;51.97;17.83;;;;;;;-0.12;100.00;95615.78;5080740;28;20211;-70
2020/12/03 03:37:16;;;;;;;52.63;17.50;;;;;;;0.00;100.00;95608.59;5078943;28;20291;-70
2020/12/03 03:39:42;;;;;;;51.57;18.10;;;;;;;-0.04;100.00;95608.16;5079752;28;20241;-70
2020/12/03 03:42:08;;;;;;;50.10;17.67;;;;;;;-0.13;100.00;95591.63;5080998;28;20256;-70
2020/12/03 03:44:34;;;;;;;55.80;17.37;;;;;;;-0.18;100.00;95600.75;5080186;28;20213;-70
2020/12/03 03:47:01;;;;;;;49.80;16.73;;;;;;;-0.09;100.00;95607.72;5079136;28;20725;-70
2020/12/03 03:49:27;;;;;;;54.00;18.07;;;;;;;-0.17;100.00;95608.38;5079514;28;20219;-70
2020/12/03 03:51:53;;;;;;;52.57;17.63;;;;;;;-0.06;100.00;95604.88;5079857;28;20284;-70
2020/12/03 03:54:19;;;;;;;54.63;18.27;;;;;;;-0.20;100.00;95610.41;5080061;28;20356;-70
2020/12/03 03:56:45;;;;;;;51.73;17.67;;;;;;;-0.03;100.00;95605.44;5078526;28;20294;-71
2020/12/03 03:59:11;;;;;;;55.07;17.23;;;;;;;-0.04;100.00;95603.81;5079770;28;20281;-70
2020/12/03 04:01:37;;;;;;;55.97;17.77;;;;;;;-0.06;100.00;95592.78;5080004;28;20675;-70
2020/12/03 04:04:04;;;;;;;55.37;19.30;;;;;;;-0.19;100.00;95599.09;5079479;28;20195;-70
2020/12/03 04:06:30;;;;;;;49.90;17.87;;;;;;;0.02;100.00;95595.53;5078889;28;20203;-70
2020/12/03 04:08:56;;;;;;;50.23;17.73;;;;;;;-0.02;100.00;95594.97;5079240;28;20769;-70
2020/12/03 04:11:22;;;;;;;61.33;18.87;;;;;;;-0.14;100.00;95599.53;5078337;28;20576;-71
2020/12/03 04:13:48;;;;;;;56.27;18.80;;;;;;;-0.29;100.00;95591.28;5079279;28;20260;-70
2020/12/03 04:16:14;;;;;;;55.80;19.57;;;;;;;-0.43;100.00;95598.56;5078697;28;21065;-70
2020/12/03 04:18:40;;;;;;;57.40;18.77;;;;;;;-0.35;100.00;95596.16;5079403;28;20321;-70
2020/12/03 04:21:09;;;;;;;55.37;17.83;;;;;;;-0.14;100.00;95584.00;5078589;28;20200;-70
2020/12/03 04:23:35;;;;;;;57.47;18.80;;;;;;;-0.16;100.00;95581.53;5079256;28;20218;-70
2020/12/03 04:26:01;;;;;;;58.90;19.00;;;;;;;-0.17;100.00;95585.06;5078129;28;20722;-70
2020/12/03 04:28:27;;;;;;;58.33;19.23;;;;;;;-0.16;100.00;95570.38;5078780;28;20227;-70
2020/12/03 04:30:54;;;;;;;51.43;18.53;;;;;;;-0.14;100.00;95573.66;5078877;28;20602;-70
2020/12/03 04:33:20;;;;;;;54.87;19.73;;;;;;;-0.20;100.00;95569.00;5079106;28;20203;-71
2020/12/03 04:35:46;;;;;;;50.37;18.03;;;;;;;-0.08;100.00;95562.78;5078182;28;20218;-70
2020/12/03 04:38:14;;;;;;;58.47;18.97;;;;;;;-0.14;100.00;95563.28;5078809;28;20242;-71
2020/12/03 04:40:42;;;;;;;55.93;18.73;;;;;;;0.00;100.00;95562.00;5078840;28;20232;-71
2020/12/03 04:43:19;;;;;;;51.50;17.63;;;;;;;-0.03;100.00;95555.44;5078945;28;20200;-70
2020/12/03 04:45:51;;;;;;;53.10;17.43;;;;;;;-0.04;100.00;95549.44;5077883;28;20196;-70
2020/12/03 04:48:30;;;;;;;55.93;19.67;;;;;;;-0.07;100.00;95548.91;5078548;28;20226;-70
2020/12/03 04:51:10;;;;;;;60.30;18.17;;;;;;;-0.02;100.00;95545.75;5078723;28;20202;-70
2020/12/03 04:53:46;;;;;;;49.17;18.20;;;;;;;0.05;100.00;95549.47;5078402;28;20222;-70
2020/12/03 04:56:22;;;;;;;53.87;18.57;;;;;;;0.08;100.00;95549.22;5078355;28;20206;-70
2020/12/03 04:58:52;;;;;;;52.27;18.77;;;;;;;0.09;100.00;95550.84;5078067;28;20222;-70
2020/12/03 05:01:51;;;;;;;55.13;19.00;;;;;;;0.14;100.00;95548.69;5077810;28;20564;-70
2020/12/03 05:04:22;;;;;;;49.97;17.97;;;;;;;0.22;100.00;95546.25;5050806;28;20564;-70
2020/12/03 05:06:57;;;;;;;51.30;19.13;;;;;;;0.17;100.00;95542.44;5077931;28;20234;-70
2020/12/03 05:09:32;;;;;;;56.13;18.97;;;;;;;0.07;100.00;95549.34;5077664;28;20223;-70
2020/12/03 05:12:05;;;;;;;49.87;17.30;;;;;;;0.17;100.00;95553.59;5078731;28;20692;-70
2020/12/03 05:14:47;;;;;;;54.77;18.23;;;;;;;0.10;100.00;95552.50;5078477;28;20204;-70
2020/12/03 05:17:26;;;;;;;54.07;18.90;;;;;;;0.20;100.00;95549.94;5077203;28;20214;-70
2020/12/03 05:20:12;;;;;;;56.33;19.17;;;;;;;0.25;100.00;95552.94;5078016;28;20263;-70
2020/12/03 05:22:39;;;;;;;57.93;18.60;;;;;;;0.07;100.00;95547.56;5077865;28;20196;-71
2020/12/03 05:25:14;;;;;;;57.43;18.97;;;;;;;0.11;100.00;95541.16;5077009;28;20208;-70
2020/12/03 05:27:40;;;;;;;59.57;19.17;;;;;;;0.05;100.00;95546.91;5077467;28;20199;-70
2020/12/03 05:30:07;;;;;;;55.63;18.63;;;;;;;0.18;100.00;95550.06;5077911;28;20210;-70
2020/12/03 05:32:34;;;;;;;57.73;19.77;;;;;;;0.16;100.00;95539.00;5077656;28;20732;-70
2020/12/03 05:35:00;;;;;;;59.80;20.33;;;;;;;-0.02;100.00;95540.56;5077621;28;20195;-70
2020/12/03 05:37:28;;;;;;;60.43;20.93;;;;;;;-0.15;100.00;95535.75;5077654;28;20203;-70
2020/12/03 05:39:57;;;;;;;61.50;20.83;;;;;;;-0.18;100.00;95530.84;5077261;28;20428;-70
2020/12/03 05:42:28;;;;;;;58.93;21.43;;;;;;;-0.09;100.00;95530.06;5077352;28;20666;-70
2020/12/03 05:44:56;;;;;;;59.17;19.67;;;;;;;-0.12;100.00;95527.75;5077859;28;20208;-70
2020/12/03 05:47:24;;;;;;;53.73;19.23;;;;;;;-0.17;100.00;95516.97;5076909;28;20206;-70
2020/12/03 05:49:54;;;;;;;54.63;20.63;;;;;;;-0.18;100.00;95525.66;5077395;28;20214;-70
2020/12/03 05:52:24;;;;;;;64.53;20.60;;;;;;;-0.19;100.00;95524.84;5077295;28;20710;-70
2020/12/03 05:54:57;;;;;;;53.50;18.73;;;;;;;0.01;100.00;95511.84;5076956;28;20692;-70
2020/12/03 05:57:26;;;;;;;53.47;19.60;;;;;;;-0.02;100.00;95517.28;5076779;28;20214;-70
2020/12/03 05:59:51;;;;;;;61.87;20.10;;;;;;;0.04;100.00;95506.41;5077296;28;20214;-70
2020/12/03 06:02:27;;;;;;;60.53;19.83;;;;;;;-0.07;100.00;95515.22;5077344;28;20192;-70
2020/12/03 06:05:08;;;;;;;61.77;19.80;;;;;;;-0.04;100.00;95517.56;5076939;28;20210;-70
2020/12/03 06:07:55;;;;;;;59.57;21.13;;;;;;;-0.01;100.00;95512.94;5078098;28;20579;-70
2020/12/03 06:10:31;;;;;;;60.77;21.43;;;;;;;0.01;100.00;95511.03;5076645;28;20688;-70
2020/12/03 06:13:25;;;;;;;52.77;18.60;;;;;;;0.02;100.00;95508.28;5076686;28;20231;-70
2020/12/03 06:15:59;;;;;;;53.60;19.40;;;;;;;0.13;100.00;95507.41;5068432;28;20214;-70
2020/12/03 06:18:46;;;;;;;59.87;19.60;;;;;;;0.04;100.00;95509.00;5077682;28;20223;-70
2020/12/03 06:21:27;;;;;;;65.23;20.03;;;;;;;0.12;100.00;95505.75;5076537;28;20207;-71
2020/12/03 06:24:14;;;;;;;59.17;20.27;;;;;;;0.04;100.00;95496.03;5076468;28;20203;-71
2020/12/03 06:27:02;;;;;;;62.40;22.13;;;;;;;-0.09;100.00;95497.22;5076489;28;20222;-71
2020/12/03 06:29:40;;;;;;;78.23;24.63;;;;;;;-0.28;100.00;95498.91;5077138;28;20265;-71
2020/12/03 06:32:30;;;;;;;63.67;23.63;;;;;;;-0.29;100.00;95503.28;5076626;28;20250;-71
2020/12/03 06:35:02;;;;;;;60.20;21.70;;;;;;;-0.31;100.00;95500.00;5076468;28;20564;-71
2020/12/03 06:37:35;;;;;;;71.70;23.50;;;;;;;-0.42;100.00;95494.09;5076552;28;20212;-70
2020/12/03 06:40:04;;;;;;;70.63;22.97;;;;;;;-0.57;100.00;95493.63;5076182;28;20207;-71
2020/12/03 06:42:38;;;;;;;68.53;22.57;;;;;;;-0.63;100.00;95488.94;5076952;28;20230;-71
2020/12/03 06:45:21;;;;;;;68.97;23.53;;;;;;;-0.67;100.00;95489.34;5076343;28;20933;-71
2020/12/03 06:48:05;;;;;;;77.00;24.60;;;;;;;-0.56;100.00;95487.50;5076312;28;20228;-70
2020/12/03 06:50:53;;;;;;;73.13;23.23;;;;;;;-0.50;100.00;95499.09;5076659;28;20195;-71
2020/12/03 06:53:36;;;;;;;67.50;22.93;;;;;;;-0.49;100.00;95487.81;5076152;28;20235;-71
2020/12/03 06:56:29;;;;;;;68.00;21.93;;;;;;;-0.50;100.00;95489.59;5075621;28;21137;-71
2020/12/03 06:59:20;;;;;;;72.57;24.30;;;;;;;-0.49;100.00;95493.78;5076835;28;20229;-71
2020/12/03 07:02:09;;;;;;;74.43;25.50;;;;;;;-0.34;100.00;95504.63;5073143;28;20216;-71
2020/12/03 07:05:19;;;;;;;72.20;23.47;;;;;;;-0.29;100.00;95512.84;5076264;28;20200;-71
2020/12/03 07:08:04;;;;;;;69.83;23.60;;;;;;;-0.28;100.00;95510.09;5075012;28;20227;-71
2020/12/03 07:11:07;;;;;;;82.20;25.90;;;;;;;-0.17;100.00;95502.22;5075858;28;20219;-71
2020/12/03 07:13:59;;;;;;;71.10;23.80;;;;;;;-0.19;100.00;95513.66;5076378;28;20203;-71
2020/12/03 07:17:06;;;;;;;70.37;24.80;;;;;;;-0.31;100.00;95506.94;5074086;28;20203;-70
2020/12/03 07:20:02;;;;;;;67.37;21.70;;;;;;;-0.32;100.00;95508.72;5072306;28;20231;-71
2020/12/03 07:22:33;;;;;;;62.20;21.17;;;;;;;-0.20;100.00;95512.06;5076235;28;20202;-71
2020/12/03 07:25:00;;;;;;;70.03;22.73;;;;;;;-0.25;100.00;95515.00;5075902;28;20223;-71
2020/12/03 07:28:02;;;;;;;67.37;21.97;;;;;;;-0.24;100.00;95514.06;5075875;28;20213;-71
2020/12/03 07:30:37;;;;;;;60.80;20.23;;;;;;;-0.19;100.00;95514.50;5075852;28;20218;-71
2020/12/03 07:33:09;;;;;;;63.70;21.77;;;;;;;-0.09;100.00;95509.34;5075796;28;20863;-71
2020/12/03 07:35:45;;;;;;;62.67;21.27;;;;;;;-0.28;100.00;95499.75;5075258;28;20200;-71
2020/12/03 07:38:18;;;;;;;62.93;22.47;;;;;;;-0.21;100.00;95506.03;5076110;28;20620;-71
2020/12/03 07:40:45;;;;;;;70.07;22.53;;;;;;;-0.13;100.00;95505.38;5075742;28;20215;-71
2020/12/03 07:43:19;;;;;;;60.90;21.10;;;;;;;-0.14;100.00;95499.41;5075860;28;20205;-71
2020/12/03 07:45:49;;;;;;;58.77;17.33;;;;;;;-0.15;100.00;95502.09;5074416;28;21286;-71
2020/12/03 07:48:19;;;;;;;59.20;20.77;;;;;;;-0.19;100.00;95508.50;5079236;28;20247;-71
2020/12/03 07:51:09;;;;;;;57.80;20.33;;;;;;;-0.17;100.00;95496.25;5077580;28;20212;-71
2020/12/03 07:53:35;;;;;;;69.43;25.37;;;;;;;-0.08;100.00;95503.22;5078261;28;20224;-71
2020/12/03 07:56:32;;;;;;;64.77;23.07;;;;;;;-0.04;100.00;95496.84;5077911;28;20674;-71
2020/12/03 07:59:36;;;;;;;62.60;22.07;;;;;;;-0.02;100.00;95496.56;5078459;28;20226;-71
2020/12/03 08:02:04;;;;;;;64.70;21.43;;;;;;;0.05;100.00;95494.25;5078566;28;20232;-71
2020/12/03 08:04:33;;;;;;;57.53;20.53;;;;;;;0.00;100.00;95493.88;5078554;28;20218;-71
2020/12/03 08:07:27;;;;;;;56.93;20.67;;;;;;;0.02;100.00;95492.75;5077256;28;20219;-71
2020/12/03 08:09:53;;;;;;;54.97;20.03;;;;;;;0.08;100.00;95487.06;5078660;28;20216;-71
2020/12/03 08:12:22;;;;;;;51.43;19.20;;;;;;;0.21;100.00;95482.44;5078760;28;20728;-71
2020/12/03 08:14:49;;;;;;;55.80;19.63;;;;;;;0.23;100.00;95480.56;5078528;28;20595;-71
2020/12/03 08:17:44;;;;;;;48.80;18.20;;;;;;;0.25;100.00;95478.63;5077194;28;21177;-71
2020/12/03 08:20:17;;;;;;;55.83;19.23;;;;;;;0.28;100.00;95480.97;5077577;28;20283;-72
2020/12/03 08:22:46;;;;;;;56.90;21.20;;;;;;;0.33;100.00;95477.97;5078296;28;20199;-71
2020/12/03 08:25:14;;;;;;;54.93;18.83;;;;;;;0.31;100.00;95477.31;5077312;28;20542;-71
2020/12/03 08:27:41;;;;;;;53.97;19.53;;;;;;;0.27;100.00;95484.50;5078378;28;20288;-71
2020/12/03 08:30:38;;;;;;;49.43;17.90;;;;;;;0.35;100.00;95479.47;5079155;28;20550;-70
2020/12/03 08:33:11;;;;;;;51.50;19.20;;;;;;;0.27;100.00;95470.75;5077529;28;20739;-70
2020/12/03 08:35:38;;;;;;;52.63;18.07;;;;;;;0.21;100.00;95472.09;5077972;28;20921;-70
2020/12/03 08:38:05;;;;;;;60.27;20.97;;;;;;;0.31;100.00;95462.56;5077906;28;20692;-70
2020/12/03 08:40:33;;;;;;;61.57;21.77;;;;;;;0.39;100.00;95465.28;5078073;28;20204;-71
2020/12/03 08:43:07;;;;;;;49.63;18.50;;;;;;;0.38;100.00;95462.84;5077926;28;20200;-71
2020/12/03 08:45:41;;;;;;;50.93;18.93;;;;;;;0.47;100.00;95472.41;5077371;28;20237;-71
2020/12/03 08:48:12;;;;;;;45.33;17.83;;;;;;;0.46;100.00;95474.19;5077149;28;20296;-71
2020/12/03 08:50:38;;;;;;;50.80;18.13;;;;;;;0.50;100.00;95469.53;5077366;28;20207;-71
2020/12/03 08:53:08;;;;;;;47.97;16.70;;;;;;;0.46;100.00;95463.81;5077538;28;21021;-71
2020/12/03 08:55:38;;;;;;;52.63;18.27;;;;;;;0.49;100.00;95457.53;5077115;28;20238;-71
2020/12/03 08:58:06;;;;;;;45.00;17.57;;;;;;;0.54;100.00;95448.41;5077034;28;20229;-71
2020/12/03 09:00:36;;;;;;;49.20;18.47;;;;;;;0.61;100.00;95439.13;5078115;28;20200;-71
2020/12/03 09:03:04;;;;;;;44.63;19.00;;;;;;;0.71;100.00;95435.59;5077388;28;20198;-71
2020/12/03 09:05:31;;;;;;;50.17;19.77;;;;;;;0.68;100.00;95432.44;5077197;28;20298;-71
2020/12/03 09:07:58;;;;;;;51.20;19.77;;;;;;;0.71;100.00;95429.56;5077270;28;20583;-71
2020/12/03 09:10:25;;;;;;;58.27;21.17;;;;;;;0.69;100.00;95423.72;5077162;28;20211;-72
2020/12/03 09:12:52;;;;;;;61.97;22.10;;;;;;;0.70;100.00;95433.09;5077080;28;20597;-72
2020/12/03 09:15:19;;;;;;;66.07;23.10;;;;;;;0.75;100.00;95430.91;5077339;28;20199;-72
2020/12/03 09:17:58;;;;;;;61.37;22.10;;;;;;;0.69;100.00;95427.13;5077043;28;20235;-71
2020/12/03 09:20:24;;;;;;;60.67;22.17;;;;;;;0.73;100.00;95407.72;5077092;28;20524;-71
2020/12/03 09:22:51;;;;;;;57.07;20.73;;;;;;;0.82;100.00;95414.69;5077583;28;20292;-72
2020/12/03 09:25:17;;;;;;;58.87;21.20;;;;;;;0.95;100.00;95411.81;5076180;28;20221;-72
2020/12/03 09:27:44;;;;;;;58.53;21.67;;;;;;;1.04;100.00;95403.19;5076936;28;20532;-72
2020/12/03 09:30:18;;;;;;;58.37;21.47;;;;;;;1.06;100.00;95398.66;5077901;28;20205;-72
2020/12/03 09:32:48;;;;;;;56.10;21.23;;;;;;;1.17;100.00;95393.31;5077271;28;20318;-71
2020/12/03 09:35:15;;;;;;;64.07;23.10;;;;;;;1.29;100.00;95378.25;5075625;28;21194;-70
2020/12/03 09:37:41;;;;;;;63.40;22.93;;;;;;;1.19;100.00;95386.22;5075516;28;21230;-70
2020/12/03 09:40:09;;;;;;;66.07;22.03;;;;;;;1.14;100.00;95380.63;5078409;28;20207;-70
2020/12/03 09:42:41;;;;;;;64.93;23.30;;;;;;;1.08;100.00;95378.59;5076995;28;20214;-70
2020/12/03 09:45:11;;;;;;;71.27;28.67;;;;;;;1.14;100.00;95368.47;5077022;28;20203;-70
2020/12/03 09:47:40;;;;;;;60.37;23.57;;;;;;;1.25;100.00;95369.13;5077711;28;20207;-70
2020/12/03 09:50:06;;;;;;;67.60;24.10;;;;;;;1.37;100.00;95356.78;5077524;28;20192;-71
2020/12/03 09:52:36;;;;;;;131.43;43.93;;;;;;;1.39;100.00;95344.50;5077201;28;20249;-71
2020/12/03 09:55:13;;;;;;;135.87;47.90;;;;;;;1.49;100.00;95350.44;5076486;28;20265;-71
2020/12/03 09:57:39;;;;;;;92.13;33.33;;;;;;;1.39;100.00;95347.88;5077402;28;20432;-71
2020/12/03 10:00:07;;;;;;;83.67;31.07;;;;;;;1.45;100.00;95331.75;5077453;28;20199;-71
2020/12/03 10:03:09;;;;;;;51.80;20.97;;;;;;;1.57;100.00;95322.00;5077055;28;20218;-71
2020/12/03 10:05:48;;;;;;;61.10;23.37;;;;;;;1.73;100.00;95311.78;5076390;28;20206;-71
2020/12/03 10:08:34;;;;;;;54.63;19.67;;;;;;;1.70;100.00;95307.69;5076696;28;20307;-71
2020/12/03 10:11:19;;;;;;;53.00;19.20;;;;;;;1.71;100.00;95298.94;5076448;28;20213;-71
2020/12/03 10:14:17;;;;;;;52.23;18.90;;;;;;;1.62;100.00;95293.81;5077319;28;20227;-71
2020/12/03 10:16:46;;;;;;;53.63;18.70;;;;;;;1.63;100.00;95282.44;5076104;28;20226;-71
2020/12/03 10:19:15;;;;;;;54.73;20.37;;;;;;;1.78;100.00;95281.78;5076934;28;20222;-71
2020/12/03 10:21:46;;;;;;;69.00;24.57;;;;;;;1.77;100.00;95281.94;5077029;28;20207;-71
2020/12/03 10:24:14;;;;;;;62.40;24.30;;;;;;;1.65;100.00;95270.97;5077210;28;20278;-71
2020/12/03 10:26:49;;;;;;;49.60;19.97;;;;;;;1.60;100.00;95262.00;5076085;28;20211;-71
2020/12/03 10:29:25;;;;;;;58.33;19.60;;;;;;;1.77;100.00;95250.78;5076486;28;20226;-71
2020/12/03 10:31:51;;;;;;;52.80;19.50;;;;;;;1.84;100.00;95248.25;5076437;28;20242;-71
2020/12/03 10:34:19;;;;;;;55.97;21.17;;;;;;;1.93;100.00;95249.16;5076608;28;20671;-71
2020/12/03 10:36:50;;;;;;;59.07;21.17;;;;;;;1.95;100.00;95244.66;5071823;28;20200;-71
2020/12/03 10:39:17;;;;;;;50.33;19.10;;;;;;;2.02;100.00;95236.06;5075612;28;20215;-71
2020/12/03 10:41:51;;;;;;;49.20;19.17;;;;;;;2.13;100.00;95242.84;5076124;28;20203;-71
2020/12/03 10:44:20;;;;;;;57.73;19.90;;;;;;;1.98;100.00;95233.94;5077352;28;20204;-71
2020/12/03 10:46:51;;;;;;;50.83;19.53;;;;;;;1.99;99.62;95225.19;5074318;28;20207;-70
2020/12/03 10:49:20;;;;;;;49.77;18.63;;;;;;;1.93;100.00;95225.78;5076040;28;20244;-71
2020/12/03 10:51:46;;;;;;;53.20;19.30;;;;;;;2.06;100.00;95229.66;5076007;28;20207;-71
2020/12/03 10:54:17;;;;;;;54.90;18.67;;;;;;;2.20;100.00;95223.91;5076381;28;20234;-71
2020/12/03 10:56:45;;;;;;;52.20;20.23;;;;;;;2.28;100.00;95226.56;5074284;28;20326;-71
2020/12/03 10:59:40;;;;;;;47.77;19.67;;;;;;;2.19;99.27;95226.63;5076190;28;21126;-71
2020/12/03 11:02:17;;;;;;;59.57;22.67;;;;;;;2.02;100.00;95222.28;5075659;28;20192;-71
2020/12/03 11:04:44;;;;;;;57.97;21.03;;;;;;;2.05;100.00;95216.78;5075963;28;20195;-71
2020/12/03 11:07:12;;;;;;;127.70;23.03;;;;;;;2.21;100.00;95209.13;5074562;28;20234;-72
2020/12/03 11:09:40;;;;;;;51.63;21.27;;;;;;;2.66;100.00;95205.34;5075129;28;20222;-71
2020/12/03 11:12:10;;;;;;;51.83;19.10;;;;;;;2.57;97.95;95207.09;5076415;28;20679;-71
2020/12/03 11:14:36;;;;;;;49.33;19.37;;;;;;;2.66;97.21;95203.56;5076488;28;20276;-71
2020/12/03 11:17:07;;;;;;;59.33;21.10;;;;;;;2.56;96.58;95195.06;5075371;28;20203;-71
2020/12/03 11:19:36;;;;;;;62.20;25.70;;;;;;;2.60;98.14;95196.38;5075998;28;20620;-71
2020/12/03 11:22:11;;;;;;;50.90;19.90;;;;;;;2.64;96.91;95196.88;5079447;28;20647;-71
2020/12/03 11:24:44;;;;;;;45.50;18.50;;;;;;;2.34;97.20;95183.53;5080720;28;20203;-71
2020/12/03 11:27:11;;;;;;;43.40;17.33;;;;;;;2.26;98.42;95188.69;5079376;28;20218;-71
2020/12/03 11:29:38;;;;;;;49.53;20.13;;;;;;;2.09;99.31;95181.78;5080007;28;20231;-71
2020/12/03 11:32:04;;;;;;;49.73;19.23;;;;;;;2.29;100.00;95181.41;5079512;28;20259;-71